Stirling, New Jersey
Current Conditions -  °F | °C
As of 9:45 PM on Wednesday 22 Oct 2014 (Local Time) from KMMU Reporting Station
Light Rain Light Rain  
Wind Chill: 54°   Ceiling: 2200
Heat Index: 54°   Visibility: 7mi
Dew Point: 50°   Wind: 12mph
Humidity: 88%   Direction: 30°NNE
Pressure: 29.81"   Gusts: 28mph
Location:  40.67°N, 74.49°W
Report Text: KMMU 230145Z 03010G24KT 7SM -RA OVC022 12/10 A2981
Loading
Personal Weather Stations






























Interactive Weather Map
Tropical Storm Tracking
New forecast layout! Learn more

10-Day Weather Forecast

Advertisements
Track Severe Weather on mobile